Time;durP1;ratioP1;P1;durP2;ratioP2;P2;SDS_P1;SDS_P2;PMS_P1;PMS_P2;Temp;Humidity;BMP_temperature;BMP_pressure;BME280_temperature;BME280_humidity;BME280_pressure;Samples;Min_cycle;Max_cycle;Signal;HPM_P1;HPM_P2
2021/09/27 00:00:28;;;;;;;18.95;15.2;;;;;;;15.56;99.37012;95484.48;;;;
2021/09/27 00:01:31;;;;;;;18.95;15.2;;;;;;;15.56;99.37012;95484.48;;;;
2021/09/27 00:02:32;;;;;;;18.95;15.2;;;;;;;15.56;99.37012;95484.48;;;;
2021/09/27 00:03:32;;;;;;;18.95;15.2;;;;;;;15.56;99.37012;95484.48;;;;
2021/09/27 00:04:34;;;;;;;18.95;15.2;;;;;;;15.56;99.37012;95484.48;;;;
2021/09/27 00:05:35;;;;;;;18.95;15.2;;;;;;;15.56;99.37012;95484.48;;;;
2021/09/27 00:06:36;;;;;;;18.95;15.2;;;;;;;15.56;99.37012;95484.48;;;;
2021/09/27 00:07:37;;;;;;;16.55;14.45;;;;;;;15.51;100;95490.7;;;;
2021/09/27 00:08:37;;;;;;;16.55;14.45;;;;;;;15.51;100;95490.7;;;;
2021/09/27 00:09:38;;;;;;;16.55;14.45;;;;;;;15.51;100;95490.7;;;;
2021/09/27 00:10:39;;;;;;;16.55;14.45;;;;;;;15.51;100;95490.7;;;;
2021/09/27 00:11:43;;;;;;;16.55;14.45;;;;;;;15.51;100;95490.7;;;;
2021/09/27 00:12:43;;;;;;;16.55;14.45;;;;;;;15.51;100;95490.7;;;;
2021/09/27 00:13:44;;;;;;;16.55;14.45;;;;;;;15.51;100;95490.7;;;;
2021/09/27 00:14:48;;;;;;;16.55;14.45;;;;;;;15.51;100;95490.7;;;;
2021/09/27 00:15:48;;;;;;;16.55;14.45;;;;;;;15.51;100;95490.7;;;;
2021/09/27 00:16:52;;;;;;;16.55;14.45;;;;;;;15.51;100;95490.7;;;;
2021/09/27 00:17:53;;;;;;;16.55;14.45;;;;;;;15.51;100;95490.7;;;;
2021/09/27 00:18:54;;;;;;;16.75;13.9;;;;;;;15.56;100;95490.73;;;;
2021/09/27 00:19:55;;;;;;;16.75;13.9;;;;;;;15.56;100;95490.73;;;;
2021/09/27 00:20:55;;;;;;;16.75;13.9;;;;;;;15.56;100;95490.73;;;;
2021/09/27 00:21:58;;;;;;;16.75;13.9;;;;;;;15.56;100;95490.73;;;;
2021/09/27 00:22:58;;;;;;;16.75;13.9;;;;;;;15.56;100;95490.73;;;;
2021/09/27 00:23:59;;;;;;;16.75;13.9;;;;;;;15.56;100;95490.73;;;;
2021/09/27 00:25:00;;;;;;;16.75;13.9;;;;;;;15.56;100;95490.73;;;;
2021/09/27 00:26:01;;;;;;;16.75;13.9;;;;;;;15.56;100;95490.73;;;;
2021/09/27 00:27:04;;;;;;;16.75;13.9;;;;;;;15.56;100;95490.73;;;;
2021/09/27 00:28:04;;;;;;;16.75;13.9;;;;;;;15.56;100;95490.73;;;;
2021/09/27 00:29:05;;;;;;;17.4;14;;;;;;;15.52;100;95490.58;;;;
2021/09/27 00:30:06;;;;;;;17.4;14;;;;;;;15.52;100;95490.58;;;;
2021/09/27 00:31:07;;;;;;;17.4;14;;;;;;;15.52;100;95490.58;;;;
2021/09/27 00:32:08;;;;;;;17.4;14;;;;;;;15.52;100;95490.58;;;;
2021/09/27 00:33:08;;;;;;;17.4;14;;;;;;;15.52;100;95490.58;;;;
2021/09/27 00:34:10;;;;;;;17.4;14;;;;;;;15.52;100;95490.58;;;;
2021/09/27 00:35:10;;;;;;;17.4;14;;;;;;;15.52;100;95490.58;;;;
2021/09/27 00:36:15;;;;;;;17.4;14;;;;;;;15.52;100;95490.58;;;;
2021/09/27 00:37:16;;;;;;;17.4;14;;;;;;;15.52;100;95490.58;;;;
2021/09/27 00:38:16;;;;;;;17.4;14;;;;;;;15.52;100;95490.58;;;;
2021/09/27 00:39:17;;;;;;;17.25;13.45;;;;;;;15.53;100;95478.19;;;;
2021/09/27 00:40:18;;;;;;;17.25;13.45;;;;;;;15.53;100;95478.19;;;;
2021/09/27 00:41:24;;;;;;;17.25;13.45;;;;;;;15.53;100;95478.19;;;;
2021/09/27 00:42:25;;;;;;;17.25;13.45;;;;;;;15.53;100;95478.19;;;;
2021/09/27 00:43:25;;;;;;;17.25;13.45;;;;;;;15.53;100;95478.19;;;;
2021/09/27 00:44:29;;;;;;;17.25;13.45;;;;;;;15.53;100;95478.19;;;;
2021/09/27 00:45:29;;;;;;;17.25;13.45;;;;;;;15.53;100;95478.19;;;;
2021/09/27 00:46:35;;;;;;;17.25;13.45;;;;;;;15.53;100;95478.19;;;;
2021/09/27 00:47:36;;;;;;;17.25;13.45;;;;;;;15.53;100;95478.19;;;;
2021/09/27 00:48:37;;;;;;;17.25;13.45;;;;;;;15.53;100;95478.19;;;;
2021/09/27 00:49:38;;;;;;;17.25;13.45;;;;;;;15.53;100;95478.19;;;;
2021/09/27 00:50:39;;;;;;;15.95;13.4;;;;;;;15.45;100;95479.11;;;;
2021/09/27 00:51:43;;;;;;;15.95;13.4;;;;;;;15.45;100;95479.11;;;;
2021/09/27 00:52:45;;;;;;;15.95;13.4;;;;;;;15.45;100;95479.11;;;;
2021/09/27 00:53:46;;;;;;;15.95;13.4;;;;;;;15.45;100;95479.11;;;;
2021/09/27 00:54:51;;;;;;;15.95;13.4;;;;;;;15.45;100;95479.11;;;;
2021/09/27 00:55:52;;;;;;;15.95;13.4;;;;;;;15.45;100;95479.11;;;;
2021/09/27 00:56:56;;;;;;;15.95;13.4;;;;;;;15.45;100;95479.11;;;;
2021/09/27 00:58:01;;;;;;;15.95;13.4;;;;;;;15.45;100;95479.11;;;;
2021/09/27 00:59:03;;;;;;;15.95;13.4;;;;;;;15.45;100;95479.11;;;;
2021/09/27 01:00:06;;;;;;;15.95;13.4;;;;;;;15.45;100;95479.11;;;;
2021/09/27 01:01:10;;;;;;;17.2;13.55;;;;;;;15.37;100;95468.66;;;;
2021/09/27 01:02:11;;;;;;;17.2;13.55;;;;;;;15.37;100;95468.66;;;;
2021/09/27 01:03:11;;;;;;;17.2;13.55;;;;;;;15.37;100;95468.66;;;;
2021/09/27 01:04:12;;;;;;;17.2;13.55;;;;;;;15.37;100;95468.66;;;;
2021/09/27 01:05:13;;;;;;;17.2;13.55;;;;;;;15.37;100;95468.66;;;;
2021/09/27 01:06:17;;;;;;;17.2;13.55;;;;;;;15.37;100;95468.66;;;;
2021/09/27 01:07:35;;;;;;;17.2;13.55;;;;;;;15.37;100;95468.66;;;;
2021/09/27 01:08:43;;;;;;;17.2;13.55;;;;;;;15.37;100;95468.66;;;;
2021/09/27 01:09:53;;;;;;;17.2;13.55;;;;;;;15.37;100;95468.66;;;;
2021/09/27 01:11:14;;;;;;;18.45;14.05;;;;;;;15.38;100;95469.48;;;;
2021/09/27 01:12:29;;;;;;;18.45;14.05;;;;;;;15.38;100;95469.48;;;;
2021/09/27 01:13:49;;;;;;;18.45;14.05;;;;;;;15.38;100;95469.48;;;;
2021/09/27 01:15:02;;;;;;;18.45;14.05;;;;;;;15.38;100;95469.48;;;;
2021/09/27 01:16:16;;;;;;;18.45;14.05;;;;;;;15.38;100;95469.48;;;;
2021/09/27 01:17:22;;;;;;;18.45;14.05;;;;;;;15.38;100;95469.48;;;;
2021/09/27 01:18:33;;;;;;;18.45;14.05;;;;;;;15.38;100;95469.48;;;;
2021/09/27 01:19:49;;;;;;;18.45;14.05;;;;;;;15.38;100;95469.48;;;;
2021/09/27 01:21:14;;;;;;;18.45;14.05;;;;;;;15.38;100;95469.48;;;;
2021/09/27 01:22:28;;;;;;;18.5;14.6;;;;;;;15.34;100;95469.61;;;;
2021/09/27 01:23:48;;;;;;;18.5;14.6;;;;;;;15.34;100;95469.61;;;;
2021/09/27 01:32:53;;;;;;;20.3;15.85;;;;;;;15.32;100;95474.49;;;;
2021/09/27 01:33:56;;;;;;;20.3;15.85;;;;;;;15.32;100;95474.49;;;;
2021/09/27 01:35:02;;;;;;;20.3;15.85;;;;;;;15.32;100;95474.49;;;;
2021/09/27 01:36:17;;;;;;;20.3;15.85;;;;;;;15.32;100;95474.49;;;;
2021/09/27 01:37:26;;;;;;;20.3;15.85;;;;;;;15.32;100;95474.49;;;;
2021/09/27 01:38:34;;;;;;;20.3;15.85;;;;;;;15.32;100;95474.49;;;;
2021/09/27 01:39:45;;;;;;;20.3;15.85;;;;;;;15.32;100;95474.49;;;;
2021/09/27 01:40:52;;;;;;;20.3;15.85;;;;;;;15.32;100;95474.49;;;;
2021/09/27 01:42:07;;;;;;;20.3;15.85;;;;;;;15.32;100;95474.49;;;;
2021/09/27 01:43:12;;;;;;;20.3;15.85;;;;;;;15.32;100;95474.49;;;;
2021/09/27 01:44:20;;;;;;;24.1;16.8;;;;;;;15.38;100;95463.89;;;;
2021/09/27 01:45:28;;;;;;;24.1;16.8;;;;;;;15.38;100;95463.89;;;;
2021/09/27 01:46:36;;;;;;;24.1;16.8;;;;;;;15.38;100;95463.89;;;;
2021/09/27 01:47:49;;;;;;;24.1;16.8;;;;;;;15.38;100;95463.89;;;;
2021/09/27 01:49:02;;;;;;;24.1;16.8;;;;;;;15.38;100;95463.89;;;;
2021/09/27 01:50:07;;;;;;;24.1;16.8;;;;;;;15.38;100;95463.89;;;;
2021/09/27 01:51:16;;;;;;;24.1;16.8;;;;;;;15.38;100;95463.89;;;;
2021/09/27 01:52:23;;;;;;;24.1;16.8;;;;;;;15.38;100;95463.89;;;;
2021/09/27 01:53:31;;;;;;;24.1;16.8;;;;;;;15.38;100;95463.89;;;;
2021/09/27 01:54:37;;;;;;;24;16.75;;;;;;;15.37;100;95457.78;;;;
2021/09/27 01:55:42;;;;;;;24;16.75;;;;;;;15.37;100;95457.78;;;;
2021/09/27 01:57:00;;;;;;;24;16.75;;;;;;;15.37;100;95457.78;;;;
2021/09/27 01:58:12;;;;;;;24;16.75;;;;;;;15.37;100;95457.78;;;;
2021/09/27 01:59:21;;;;;;;24;16.75;;;;;;;15.37;100;95457.78;;;;
2021/09/27 02:00:31;;;;;;;24;16.75;;;;;;;15.37;100;95457.78;;;;
2021/09/27 02:01:39;;;;;;;24;16.75;;;;;;;15.37;100;95457.78;;;;
2021/09/27 02:02:49;;;;;;;24;16.75;;;;;;;15.37;100;95457.78;;;;
2021/09/27 02:03:56;;;;;;;24;16.75;;;;;;;15.37;100;95457.78;;;;
2021/09/27 02:05:04;;;;;;;21.9;16.25;;;;;;;15.32;100;95447.8;;;;
2021/09/27 02:06:12;;;;;;;21.9;16.25;;;;;;;15.32;100;95447.8;;;;
2021/09/27 02:07:21;;;;;;;21.9;16.25;;;;;;;15.32;100;95447.8;;;;
2021/09/27 02:08:23;;;;;;;21.9;16.25;;;;;;;15.32;100;95447.8;;;;
2021/09/27 02:09:30;;;;;;;21.9;16.25;;;;;;;15.32;100;95447.8;;;;
2021/09/27 02:10:36;;;;;;;21.9;16.25;;;;;;;15.32;100;95447.8;;;;
2021/09/27 02:11:43;;;;;;;21.9;16.25;;;;;;;15.32;100;95447.8;;;;
2021/09/27 02:12:50;;;;;;;21.9;16.25;;;;;;;15.32;100;95447.8;;;;
2021/09/27 02:14:00;;;;;;;21.9;16.25;;;;;;;15.32;100;95447.8;;;;
2021/09/27 02:15:07;;;;;;;21.9;16.25;;;;;;;15.32;100;95447.8;;;;
2021/09/27 02:16:12;;;;;;;22.05;16.15;;;;;;;15.26;100;95453.33;;;;
2021/09/27 02:17:20;;;;;;;22.05;16.15;;;;;;;15.26;100;95453.33;;;;
2021/09/27 02:18:26;;;;;;;22.05;16.15;;;;;;;15.26;100;95453.33;;;;
2021/09/27 02:19:33;;;;;;;22.05;16.15;;;;;;;15.26;100;95453.33;;;;
2021/09/27 02:20:42;;;;;;;22.05;16.15;;;;;;;15.26;100;95453.33;;;;
2021/09/27 02:21:48;;;;;;;22.05;16.15;;;;;;;15.26;100;95453.33;;;;
2021/09/27 02:22:54;;;;;;;22.05;16.15;;;;;;;15.26;100;95453.33;;;;
2021/09/27 02:24:01;;;;;;;22.05;16.15;;;;;;;15.26;100;95453.33;;;;
2021/09/27 02:25:11;;;;;;;22.05;16.15;;;;;;;15.26;100;95453.33;;;;
2021/09/27 02:26:17;;;;;;;25.05;17.55;;;;;;;15.23;100;95445.7;;;;
2021/09/27 02:27:18;;;;;;;25.05;17.55;;;;;;;15.23;100;95445.7;;;;
2021/09/27 02:28:19;;;;;;;25.05;17.55;;;;;;;15.23;100;95445.7;;;;
2021/09/27 02:29:22;;;;;;;25.05;17.55;;;;;;;15.23;100;95445.7;;;;
2021/09/27 02:30:24;;;;;;;25.05;17.55;;;;;;;15.23;100;95445.7;;;;
2021/09/27 02:31:33;;;;;;;25.05;17.55;;;;;;;15.23;100;95445.7;;;;
2021/09/27 02:32:41;;;;;;;25.05;17.55;;;;;;;15.23;100;95445.7;;;;
2021/09/27 02:33:51;;;;;;;25.05;17.55;;;;;;;15.23;100;95445.7;;;;
2021/09/27 02:34:57;;;;;;;25.05;17.55;;;;;;;15.23;100;95445.7;;;;
2021/09/27 02:36:05;;;;;;;25.05;17.55;;;;;;;15.23;100;95445.7;;;;
2021/09/27 02:37:09;;;;;;;23.7;16.8;;;;;;;15.14;100;95446.85;;;;
2021/09/27 02:38:19;;;;;;;23.7;16.8;;;;;;;15.14;100;95446.85;;;;
2021/09/27 02:39:26;;;;;;;23.7;16.8;;;;;;;15.14;100;95446.85;;;;
2021/09/27 02:40:31;;;;;;;23.7;16.8;;;;;;;15.14;100;95446.85;;;;
2021/09/27 02:41:36;;;;;;;23.7;16.8;;;;;;;15.14;100;95446.85;;;;
2021/09/27 02:42:45;;;;;;;23.7;16.8;;;;;;;15.14;100;95446.85;;;;
2021/09/27 02:43:49;;;;;;;23.7;16.8;;;;;;;15.14;100;95446.85;;;;
2021/09/27 02:44:50;;;;;;;23.7;16.8;;;;;;;15.14;100;95446.85;;;;
2021/09/27 02:45:50;;;;;;;23.7;16.8;;;;;;;15.14;100;95446.85;;;;
2021/09/27 02:46:54;;;;;;;23.7;16.8;;;;;;;15.14;100;95446.85;;;;
2021/09/27 02:47:58;;;;;;;20.95;15.5;;;;;;;15.04;100;95448.14;;;;
2021/09/27 02:49:09;;;;;;;20.95;15.5;;;;;;;15.04;100;95448.14;;;;
2021/09/27 02:50:12;;;;;;;20.95;15.5;;;;;;;15.04;100;95448.14;;;;
2021/09/27 02:51:18;;;;;;;20.95;15.5;;;;;;;15.04;100;95448.14;;;;
2021/09/27 02:52:19;;;;;;;20.95;15.5;;;;;;;15.04;100;95448.14;;;;
2021/09/27 02:53:20;;;;;;;20.95;15.5;;;;;;;15.04;100;95448.14;;;;
2021/09/27 02:54:21;;;;;;;20.95;15.5;;;;;;;15.04;100;95448.14;;;;
2021/09/27 02:55:30;;;;;;;20.95;15.5;;;;;;;15.04;100;95448.14;;;;
2021/09/27 02:56:40;;;;;;;20.95;15.5;;;;;;;15.04;100;95448.14;;;;
2021/09/27 02:57:58;;;;;;;20.5;14.7;;;;;;;15.01;100;95437.76;;;;
2021/09/27 02:59:14;;;;;;;20.5;14.7;;;;;;;15.01;100;95437.76;;;;
2021/09/27 03:00:22;;;;;;;20.5;14.7;;;;;;;15.01;100;95437.76;;;;
2021/09/27 03:01:29;;;;;;;20.5;14.7;;;;;;;15.01;100;95437.76;;;;
2021/09/27 03:02:38;;;;;;;20.5;14.7;;;;;;;15.01;100;95437.76;;;;
2021/09/27 03:03:51;;;;;;;20.5;14.7;;;;;;;15.01;100;95437.76;;;;
2021/09/27 03:05:03;;;;;;;20.5;14.7;;;;;;;15.01;100;95437.76;;;;
2021/09/27 03:06:15;;;;;;;20.5;14.7;;;;;;;15.01;100;95437.76;;;;
2021/09/27 03:07:26;;;;;;;20.5;14.7;;;;;;;15.01;100;95437.76;;;;
2021/09/27 03:08:43;;;;;;;20.75;14.05;;;;;;;14.78;100;95436.22;;;;
2021/09/27 03:09:57;;;;;;;20.75;14.05;;;;;;;14.78;100;95436.22;;;;
2021/09/27 03:11:13;;;;;;;20.75;14.05;;;;;;;14.78;100;95436.22;;;;
2021/09/27 03:12:31;;;;;;;20.75;14.05;;;;;;;14.78;100;95436.22;;;;
2021/09/27 03:13:40;;;;;;;20.75;14.05;;;;;;;14.78;100;95436.22;;;;
2021/09/27 03:14:52;;;;;;;20.75;14.05;;;;;;;14.78;100;95436.22;;;;
2021/09/27 03:16:12;;;;;;;20.75;14.05;;;;;;;14.78;100;95436.22;;;;
2021/09/27 03:17:24;;;;;;;20.75;14.05;;;;;;;14.78;100;95436.22;;;;
2021/09/27 03:18:33;;;;;;;20.75;14.05;;;;;;;14.78;100;95436.22;;;;
2021/09/27 03:19:47;;;;;;;17.95;13.9;;;;;;;14.53;100;95436.39;;;;
2021/09/27 03:21:07;;;;;;;17.95;13.9;;;;;;;14.53;100;95436.39;;;;
2021/09/27 03:22:21;;;;;;;17.95;13.9;;;;;;;14.53;100;95436.39;;;;
2021/09/27 03:23:32;;;;;;;17.95;13.9;;;;;;;14.53;100;95436.39;;;;
2021/09/27 03:24:41;;;;;;;17.95;13.9;;;;;;;14.53;100;95436.39;;;;
2021/09/27 03:25:51;;;;;;;17.95;13.9;;;;;;;14.53;100;95436.39;;;;
2021/09/27 03:27:03;;;;;;;17.95;13.9;;;;;;;14.53;100;95436.39;;;;
2021/09/27 03:28:25;;;;;;;17.95;13.9;;;;;;;14.53;100;95436.39;;;;
2021/09/27 03:29:36;;;;;;;17.95;13.9;;;;;;;14.53;100;95436.39;;;;
2021/09/27 03:30:47;;;;;;;21.4;14.65;;;;;;;14.31;100;95446.47;;;;
2021/09/27 03:32:03;;;;;;;21.4;14.65;;;;;;;14.31;100;95446.47;;;;
2021/09/27 03:33:18;;;;;;;21.4;14.65;;;;;;;14.31;100;95446.47;;;;
2021/09/27 03:34:31;;;;;;;21.4;14.65;;;;;;;14.31;100;95446.47;;;;
2021/09/27 03:35:39;;;;;;;21.4;14.65;;;;;;;14.31;100;95446.47;;;;
2021/09/27 03:37:00;;;;;;;21.4;14.65;;;;;;;14.31;100;95446.47;;;;
2021/09/27 03:38:18;;;;;;;21.4;14.65;;;;;;;14.31;100;95446.47;;;;
2021/09/27 03:39:27;;;;;;;21.4;14.65;;;;;;;14.31;100;95446.47;;;;
2021/09/27 03:40:35;;;;;;;18.45;13.85;;;;;;;14.12;100;95442.81;;;;
2021/09/27 03:41:51;;;;;;;18.45;13.85;;;;;;;14.12;100;95442.81;;;;
2021/09/27 03:42:59;;;;;;;18.45;13.85;;;;;;;14.12;100;95442.81;;;;
2021/09/27 03:44:11;;;;;;;18.45;13.85;;;;;;;14.12;100;95442.81;;;;
2021/09/27 03:45:21;;;;;;;18.45;13.85;;;;;;;14.12;100;95442.81;;;;
2021/09/27 03:46:28;;;;;;;18.45;13.85;;;;;;;14.12;100;95442.81;;;;
2021/09/27 03:47:38;;;;;;;18.45;13.85;;;;;;;14.12;100;95442.81;;;;
2021/09/27 03:48:48;;;;;;;18.45;13.85;;;;;;;14.12;100;95442.81;;;;
2021/09/27 03:49:55;;;;;;;18.45;13.85;;;;;;;14.12;100;95442.81;;;;
2021/09/27 03:51:02;;;;;;;18.45;13.85;;;;;;;14.12;100;95442.81;;;;
2021/09/27 03:52:05;;;;;;;21.95;14.4;;;;;;;14.01;100;95437.38;;;;
2021/09/27 03:53:12;;;;;;;21.95;14.4;;;;;;;14.01;100;95437.38;;;;
2021/09/27 03:54:17;;;;;;;21.95;14.4;;;;;;;14.01;100;95437.38;;;;
2021/09/27 03:55:21;;;;;;;21.95;14.4;;;;;;;14.01;100;95437.38;;;;
2021/09/27 03:56:29;;;;;;;21.95;14.4;;;;;;;14.01;100;95437.38;;;;
2021/09/27 03:57:34;;;;;;;21.95;14.4;;;;;;;14.01;100;95437.38;;;;
2021/09/27 03:58:38;;;;;;;21.95;14.4;;;;;;;14.01;100;95437.38;;;;
2021/09/27 03:59:45;;;;;;;21.95;14.4;;;;;;;14.01;100;95437.38;;;;
2021/09/27 04:00:52;;;;;;;21.95;14.4;;;;;;;14.01;100;95437.38;;;;
2021/09/27 04:02:01;;;;;;;19.05;13.45;;;;;;;14.04;100;95435.55;;;;
2021/09/27 04:03:11;;;;;;;19.05;13.45;;;;;;;14.04;100;95435.55;;;;
2021/09/27 04:04:32;;;;;;;19.05;13.45;;;;;;;14.04;100;95435.55;;;;
2021/09/27 04:05:44;;;;;;;19.05;13.45;;;;;;;14.04;100;95435.55;;;;
2021/09/27 04:06:54;;;;;;;19.05;13.45;;;;;;;14.04;100;95435.55;;;;
2021/09/27 04:08:08;;;;;;;19.05;13.45;;;;;;;14.04;100;95435.55;;;;
2021/09/27 04:09:21;;;;;;;19.05;13.45;;;;;;;14.04;100;95435.55;;;;
2021/09/27 04:10:31;;;;;;;19.05;13.45;;;;;;;14.04;100;95435.55;;;;
2021/09/27 04:11:44;;;;;;;19.05;13.45;;;;;;;14.04;100;95435.55;;;;
2021/09/27 04:12:59;;;;;;;17.75;13.1;;;;;;;14.09;100;95445.22;;;;
2021/09/27 04:14:16;;;;;;;17.75;13.1;;;;;;;14.09;100;95445.22;;;;
2021/09/27 04:15:22;;;;;;;17.75;13.1;;;;;;;14.09;100;95445.22;;;;
2021/09/27 04:16:36;;;;;;;17.75;13.1;;;;;;;14.09;100;95445.22;;;;
2021/09/27 04:17:47;;;;;;;17.75;13.1;;;;;;;14.09;100;95445.22;;;;
2021/09/27 04:19:02;;;;;;;17.75;13.1;;;;;;;14.09;100;95445.22;;;;
2021/09/27 04:20:13;;;;;;;17.75;13.1;;;;;;;14.09;100;95445.22;;;;
2021/09/27 04:21:22;;;;;;;17.75;13.1;;;;;;;14.09;100;95445.22;;;;
2021/09/27 04:22:32;;;;;;;17.75;13.1;;;;;;;14.09;100;95445.22;;;;
2021/09/27 04:23:37;;;;;;;19.45;14.6;;;;;;;14.13;100;95448.95;;;;
2021/09/27 04:25:00;;;;;;;19.45;14.6;;;;;;;14.13;100;95448.95;;;;
2021/09/27 04:26:11;;;;;;;19.45;14.6;;;;;;;14.13;100;95448.95;;;;
2021/09/27 04:27:24;;;;;;;19.45;14.6;;;;;;;14.13;100;95448.95;;;;
2021/09/27 04:28:42;;;;;;;19.45;14.6;;;;;;;14.13;100;95448.95;;;;
2021/09/27 04:29:59;;;;;;;19.45;14.6;;;;;;;14.13;100;95448.95;;;;
2021/09/27 04:31:18;;;;;;;19.45;14.6;;;;;;;14.13;100;95448.95;;;;
2021/09/27 04:32:31;;;;;;;19.45;14.6;;;;;;;14.13;100;95448.95;;;;
2021/09/27 04:33:47;;;;;;;19.45;14.6;;;;;;;14.13;100;95448.95;;;;
2021/09/27 04:35:00;;;;;;;19.4;13.55;;;;;;;14.13;100;95444.89;;;;
2021/09/27 04:36:15;;;;;;;19.4;13.55;;;;;;;14.13;100;95444.89;;;;
2021/09/27 04:37:19;;;;;;;19.4;13.55;;;;;;;14.13;100;95444.89;;;;
2021/09/27 04:38:20;;;;;;;19.4;13.55;;;;;;;14.13;100;95444.89;;;;
2021/09/27 04:39:21;;;;;;;19.4;13.55;;;;;;;14.13;100;95444.89;;;;
2021/09/27 04:40:26;;;;;;;19.4;13.55;;;;;;;14.13;100;95444.89;;;;
2021/09/27 04:41:46;;;;;;;19.4;13.55;;;;;;;14.13;100;95444.89;;;;
2021/09/27 04:43:37;;;;;;;19.4;13.55;;;;;;;14.13;100;95444.89;;;;
2021/09/27 04:44:52;;;;;;;16.7;12.55;;;;;;;14.1;100;95431.8;;;;
2021/09/27 04:46:09;;;;;;;16.7;12.55;;;;;;;14.1;100;95431.8;;;;
2021/09/27 04:47:18;;;;;;;16.7;12.55;;;;;;;14.1;100;95431.8;;;;
2021/09/27 04:48:27;;;;;;;16.7;12.55;;;;;;;14.1;100;95431.8;;;;
2021/09/27 04:49:49;;;;;;;16.7;12.55;;;;;;;14.1;100;95431.8;;;;
2021/09/27 04:51:03;;;;;;;16.7;12.55;;;;;;;14.1;100;95431.8;;;;
2021/09/27 04:52:18;;;;;;;16.7;12.55;;;;;;;14.1;100;95431.8;;;;
2021/09/27 04:53:30;;;;;;;16.7;12.55;;;;;;;14.1;100;95431.8;;;;
2021/09/27 04:54:41;;;;;;;16.7;12.55;;;;;;;14.1;100;95431.8;;;;
2021/09/27 04:55:59;;;;;;;19;12.5;;;;;;;13.9;100;95432.51;;;;
2021/09/27 04:57:11;;;;;;;19;12.5;;;;;;;13.9;100;95432.51;;;;
2021/09/27 04:58:19;;;;;;;19;12.5;;;;;;;13.9;100;95432.51;;;;
2021/09/27 04:59:37;;;;;;;19;12.5;;;;;;;13.9;100;95432.51;;;;
2021/09/27 05:00:50;;;;;;;19;12.5;;;;;;;13.9;100;95432.51;;;;
2021/09/27 05:02:12;;;;;;;19;12.5;;;;;;;13.9;100;95432.51;;;;
2021/09/27 05:03:31;;;;;;;19;12.5;;;;;;;13.9;100;95432.51;;;;
2021/09/27 05:04:45;;;;;;;19;12.5;;;;;;;13.9;100;95432.51;;;;
2021/09/27 05:05:49;;;;;;;19.3;12.5;;;;;;;13.68;100;95437.11;;;;
2021/09/27 05:07:09;;;;;;;19.3;12.5;;;;;;;13.68;100;95437.11;;;;
2021/09/27 05:08:41;;;;;;;19.3;12.5;;;;;;;13.68;100;95437.11;;;;
2021/09/27 05:10:00;;;;;;;19.3;12.5;;;;;;;13.68;100;95437.11;;;;
2021/09/27 05:11:18;;;;;;;19.3;12.5;;;;;;;13.68;100;95437.11;;;;
2021/09/27 05:12:33;;;;;;;19.3;12.5;;;;;;;13.68;100;95437.11;;;;
2021/09/27 05:13:54;;;;;;;19.3;12.5;;;;;;;13.68;100;95437.11;;;;
2021/09/27 05:15:16;;;;;;;19.3;12.5;;;;;;;13.68;100;95437.11;;;;
2021/09/27 05:16:38;;;;;;;17.75;12.85;;;;;;;13.55;100;95440.17;;;;
2021/09/27 05:17:47;;;;;;;17.75;12.85;;;;;;;13.55;100;95440.17;;;;
2021/09/27 05:19:03;;;;;;;17.75;12.85;;;;;;;13.55;100;95440.17;;;;
2021/09/27 05:20:24;;;;;;;17.75;12.85;;;;;;;13.55;100;95440.17;;;;
2021/09/27 05:21:40;;;;;;;17.75;12.85;;;;;;;13.55;100;95440.17;;;;
2021/09/27 05:22:58;;;;;;;17.75;12.85;;;;;;;13.55;100;95440.17;;;;
2021/09/27 05:24:06;;;;;;;17.75;12.85;;;;;;;13.55;100;95440.17;;;;
2021/09/27 05:25:36;;;;;;;17.75;12.85;;;;;;;13.55;100;95440.17;;;;
2021/09/27 05:27:28;;;;;;;16.9;12.5;;;;;;;13.46;100;95443.44;;;;
2021/09/27 05:28:46;;;;;;;16.9;12.5;;;;;;;13.46;100;95443.44;;;;
2021/09/27 05:30:00;;;;;;;16.9;12.5;;;;;;;13.46;100;95443.44;;;;
2021/09/27 05:31:09;;;;;;;16.9;12.5;;;;;;;13.46;100;95443.44;;;;
2021/09/27 05:32:26;;;;;;;16.9;12.5;;;;;;;13.46;100;95443.44;;;;
2021/09/27 05:33:38;;;;;;;16.9;12.5;;;;;;;13.46;100;95443.44;;;;
2021/09/27 05:34:45;;;;;;;16.9;12.5;;;;;;;13.46;100;95443.44;;;;
2021/09/27 05:36:02;;;;;;;16.9;12.5;;;;;;;13.46;100;95443.44;;;;
2021/09/27 05:37:20;;;;;;;16.9;12.5;;;;;;;13.46;100;95443.44;;;;
2021/09/27 05:38:33;;;;;;;18.1;12.1;;;;;;;13.37;100;95449.53;;;;
2021/09/27 05:39:41;;;;;;;18.1;12.1;;;;;;;13.37;100;95449.53;;;;
2021/09/27 05:40:57;;;;;;;18.1;12.1;;;;;;;13.37;100;95449.53;;;;
2021/09/27 05:42:08;;;;;;;18.1;12.1;;;;;;;13.37;100;95449.53;;;;
2021/09/27 05:43:14;;;;;;;18.1;12.1;;;;;;;13.37;100;95449.53;;;;
2021/09/27 05:44:28;;;;;;;18.1;12.1;;;;;;;13.37;100;95449.53;;;;
2021/09/27 05:45:40;;;;;;;18.1;12.1;;;;;;;13.37;100;95449.53;;;;
2021/09/27 05:46:49;;;;;;;18.1;12.1;;;;;;;13.37;100;95449.53;;;;
2021/09/27 05:48:05;;;;;;;18.1;12.1;;;;;;;13.37;100;95449.53;;;;
2021/09/27 05:49:12;;;;;;;17.5;12.15;;;;;;;13.34;100;95452.23;;;;
2021/09/27 05:50:20;;;;;;;17.5;12.15;;;;;;;13.34;100;95452.23;;;;
2021/09/27 05:51:27;;;;;;;17.5;12.15;;;;;;;13.34;100;95452.23;;;;
2021/09/27 05:52:34;;;;;;;17.5;12.15;;;;;;;13.34;100;95452.23;;;;
2021/09/27 05:53:43;;;;;;;17.5;12.15;;;;;;;13.34;100;95452.23;;;;
2021/09/27 05:54:52;;;;;;;17.5;12.15;;;;;;;13.34;100;95452.23;;;;
2021/09/27 05:56:00;;;;;;;17.5;12.15;;;;;;;13.34;100;95452.23;;;;
2021/09/27 05:57:08;;;;;;;17.5;12.15;;;;;;;13.34;100;95452.23;;;;
2021/09/27 05:58:31;;;;;;;17.5;12.15;;;;;;;13.34;100;95452.23;;;;
2021/09/27 05:59:41;;;;;;;17.05;12.6;;;;;;;13.51;100;95458.98;;;;
2021/09/27 06:00:50;;;;;;;17.05;12.6;;;;;;;13.51;100;95458.98;;;;
2021/09/27 06:02:00;;;;;;;17.05;12.6;;;;;;;13.51;100;95458.98;;;;
2021/09/27 06:03:13;;;;;;;17.05;12.6;;;;;;;13.51;100;95458.98;;;;
2021/09/27 06:04:29;;;;;;;17.05;12.6;;;;;;;13.51;100;95458.98;;;;
2021/09/27 06:05:45;;;;;;;17.05;12.6;;;;;;;13.51;100;95458.98;;;;
2021/09/27 06:06:53;;;;;;;17.05;12.6;;;;;;;13.51;100;95458.98;;;;
2021/09/27 06:08:01;;;;;;;17.05;12.6;;;;;;;13.51;100;95458.98;;;;
2021/09/27 06:09:08;;;;;;;17.05;12.6;;;;;;;13.51;100;95458.98;;;;
2021/09/27 06:10:23;;;;;;;18.65;12.35;;;;;;;13.99;100;95459.09;;;;
2021/09/27 06:11:30;;;;;;;18.65;12.35;;;;;;;13.99;100;95459.09;;;;
2021/09/27 06:12:40;;;;;;;18.65;12.35;;;;;;;13.99;100;95459.09;;;;
2021/09/27 06:13:49;;;;;;;18.65;12.35;;;;;;;13.99;100;95459.09;;;;
2021/09/27 06:14:51;;;;;;;18.65;12.35;;;;;;;13.99;100;95459.09;;;;
2021/09/27 06:15:57;;;;;;;18.65;12.35;;;;;;;13.99;100;95459.09;;;;
2021/09/27 06:17:00;;;;;;;18.65;12.35;;;;;;;13.99;100;95459.09;;;;
2021/09/27 06:18:18;;;;;;;18.65;12.35;;;;;;;13.99;100;95459.09;;;;
2021/09/27 06:19:34;;;;;;;18.65;12.35;;;;;;;13.99;100;95459.09;;;;
2021/09/27 06:20:44;;;;;;;14.25;11.4;;;;;;;14.62;100;95467.05;;;;
2021/09/27 06:21:55;;;;;;;14.25;11.4;;;;;;;14.62;100;95467.05;;;;
2021/09/27 06:23:11;;;;;;;14.25;11.4;;;;;;;14.62;100;95467.05;;;;
2021/09/27 06:24:26;;;;;;;14.25;11.4;;;;;;;14.62;100;95467.05;;;;
2021/09/27 06:25:40;;;;;;;14.25;11.4;;;;;;;14.62;100;95467.05;;;;
2021/09/27 06:26:48;;;;;;;14.25;11.4;;;;;;;14.62;100;95467.05;;;;
2021/09/27 06:27:58;;;;;;;14.25;11.4;;;;;;;14.62;100;95467.05;;;;
2021/09/27 06:29:09;;;;;;;14.25;11.4;;;;;;;14.62;100;95467.05;;;;
2021/09/27 06:30:18;;;;;;;14.25;11.4;;;;;;;14.62;100;95467.05;;;;
2021/09/27 06:31:25;;;;;;;12;10;;;;;;;15.44;100;95471.17;;;;
2021/09/27 06:32:32;;;;;;;12;10;;;;;;;15.44;100;95471.17;;;;
2021/09/27 06:33:44;;;;;;;12;10;;;;;;;15.44;100;95471.17;;;;
2021/09/27 06:34:52;;;;;;;12;10;;;;;;;15.44;100;95471.17;;;;
2021/09/27 06:35:56;;;;;;;12;10;;;;;;;15.44;100;95471.17;;;;
2021/09/27 06:36:59;;;;;;;12;10;;;;;;;15.44;100;95471.17;;;;
2021/09/27 06:38:01;;;;;;;12;10;;;;;;;15.44;100;95471.17;;;;
2021/09/27 06:39:06;;;;;;;12;10;;;;;;;15.44;100;95471.17;;;;
2021/09/27 06:40:12;;;;;;;12;10;;;;;;;15.44;100;95471.17;;;;
2021/09/27 06:41:14;;;;;;;12;10;;;;;;;15.44;100;95471.17;;;;
2021/09/27 06:42:18;;;;;;;12.7;10.15;;;;;;;15.87;100;95454.16;;;;
2021/09/27 06:43:19;;;;;;;12.7;10.15;;;;;;;15.87;100;95454.16;;;;
2021/09/27 06:44:22;;;;;;;12.7;10.15;;;;;;;15.87;100;95454.16;;;;
2021/09/27 06:45:22;;;;;;;12.7;10.15;;;;;;;15.87;100;95454.16;;;;
2021/09/27 06:46:23;;;;;;;12.7;10.15;;;;;;;15.87;100;95454.16;;;;
2021/09/27 06:47:24;;;;;;;12.7;10.15;;;;;;;15.87;100;95454.16;;;;
2021/09/27 06:48:24;;;;;;;12.7;10.15;;;;;;;15.87;100;95454.16;;;;
2021/09/27 06:49:25;;;;;;;12.7;10.15;;;;;;;15.87;100;95454.16;;;;
2021/09/27 06:50:25;;;;;;;12.7;10.15;;;;;;;15.87;100;95454.16;;;;
2021/09/27 06:51:26;;;;;;;12.7;10.15;;;;;;;15.87;100;95454.16;;;;
2021/09/27 06:52:27;;;;;;;12.7;10.15;;;;;;;15.87;100;95454.16;;;;
2021/09/27 06:53:30;;;;;;;11.45;9.299999;;;;;;;16.22;100;95459.25;;;;
2021/09/27 06:54:30;;;;;;;11.45;9.299999;;;;;;;16.22;100;95459.25;;;;
2021/09/27 06:55:31;;;;;;;11.45;9.299999;;;;;;;16.22;100;95459.25;;;;
2021/09/27 06:56:32;;;;;;;11.45;9.299999;;;;;;;16.22;100;95459.25;;;;
2021/09/27 06:57:33;;;;;;;11.45;9.299999;;;;;;;16.22;100;95459.25;;;;
2021/09/27 06:58:33;;;;;;;11.45;9.299999;;;;;;;16.22;100;95459.25;;;;
2021/09/27 06:59:34;;;;;;;11.45;9.299999;;;;;;;16.22;100;95459.25;;;;
2021/09/27 07:00:34;;;;;;;11.45;9.299999;;;;;;;16.22;100;95459.25;;;;
2021/09/27 07:01:35;;;;;;;11.45;9.299999;;;;;;;16.22;100;95459.25;;;;